Halle Kroellwitz, Germany

2:12 PM CEST on July 24, 2016 (GMT +0200)
Leipzig-Halle | | Change Station

Elev 463 ft 51.43 °N, 12.24 °E | Updated 22 minutes ago

Scattered Clouds
Scattered Clouds
82 °F
Feels Like 82 °F
N
7
Wind Variable Wind from Variable

Today
High -- | Low -- °F
--% Chance of Precip.
Yesterday
High -- | Low -- °F
Precip. -- in
Pressure 30.06 in
Visibility 6.2 miles
Clouds Scattered Clouds 4600 ft
Heat Index 82 °F
Dew Point 55 °F
Humidity 39%
Rainfall 0.00 in
Snow Depth Not available.
5:24 AM 9:11 PM
Waning Gibbous, 77% visible
METAR EDDP 241150Z VRB06KT 9999 SCT046 28/13 Q1018 NOSIG
Pressure 30.06 in
Visibility 6.2 miles
Clouds Scattered Clouds 4600 ft
Heat Index 82 °F
Dew Point 55 °F
Humidity 39%
Rainfall 0.00 in
Snow Depth Not available.
5:24 AM 9:11 PM
Waning Gibbous, 77% visible
METAR EDDP 241150Z VRB06KT 9999 SCT046 28/13 Q1018 NOSIG

10-Day Weather Forecast

×

Almanac

Astronomy

Jul. 24, 2016 Rise Set
Actual Time
Civil Twilight
Nautical Twilight
Astronomical Twilight
Moon
Length of Visible Light
Length of Day
Tomorrow will be .
, % of the Moon is Illuminated

Today's Extremes

Country Highs Country Lows

Community

WunderPhotos

Upload Photos

1,927,053 photos uploaded!

WunderBlog® & News

Nearby

Air Quality

  Air Quality AQ Index Pollutant
Not available.

Snow Depth

Station Depth Elevation

Earthquake Activity

City Distance Mag. Time & Date
Minimum magnitude displayed is 2.5.

Coastal Water Temperatures

Place Temperature

Stations

Nearby Weather Stations

Station Location Temp. Windchill Dew Point Humidity Wind Precip. Elev Updated Type